Time;durP1;ratioP1;P1;durP2;ratioP2;P2;SDS_P1;SDS_P2;PMS_P1;PMS_P2;Temp;Humidity;BMP_temperature;BMP_pressure;BME280_temperature;BME280_humidity;BME280_pressure;Samples;Min_cycle;Max_cycle;Signal;HPM_P1;HPM_P2
2023/10/03 00:01:36;;;;;;;40.40;15.95;;;;;;;11.59;100.00;94319.22;5031195;28;20055;-60
2023/10/03 00:04:10;;;;;;;41.90;15.65;;;;;;;11.68;100.00;94321.44;5030536;28;20041;-59
2023/10/03 00:06:38;;;;;;;65.30;29.10;;;;;;;11.71;100.00;94309.63;5029528;28;20052;-59
2023/10/03 00:09:06;;;;;;;50.63;20.17;;;;;;;11.73;100.00;94312.75;5030236;28;20041;-60
2023/10/03 00:11:35;;;;;;;43.33;15.43;;;;;;;11.71;100.00;94308.84;5030353;28;20495;-60
2023/10/03 00:14:07;;;;;;;41.53;14.93;;;;;;;11.66;100.00;94304.59;5030537;28;20041;-60
2023/10/03 00:16:34;;;;;;;39.83;14.93;;;;;;;11.66;100.00;94303.81;5030336;28;20060;-60
2023/10/03 00:19:01;;;;;;;39.88;14.95;;;;;;;11.65;100.00;94294.78;5029957;28;20053;-60
2023/10/03 00:21:28;;;;;;;40.67;14.83;;;;;;;11.63;100.00;94299.13;5029832;28;20057;-60
2023/10/03 00:23:55;;;;;;;39.65;15.13;;;;;;;11.59;100.00;94296.44;5029924;28;20045;-59
2023/10/03 00:26:23;;;;;;;41.85;14.52;;;;;;;11.54;100.00;94291.41;5029098;28;20045;-60
2023/10/03 00:28:51;;;;;;;41.28;14.88;;;;;;;11.53;100.00;94290.63;5030274;28;20053;-60
2023/10/03 00:31:19;;;;;;;40.42;14.60;;;;;;;11.51;100.00;94283.97;5049125;28;21631;-59
2023/10/03 00:33:46;;;;;;;44.77;15.17;;;;;;;11.50;100.00;94274.94;5044861;28;20045;-60
2023/10/03 00:36:22;;;;;;;41.58;15.10;;;;;;;11.51;100.00;94284.75;5049719;28;20068;-59
2023/10/03 00:38:53;;;;;;;36.13;14.68;;;;;;;11.47;100.00;94280.47;5049686;28;20405;-60
2023/10/03 00:41:20;;;;;;;37.97;14.45;;;;;;;11.48;100.00;94290.31;5038030;28;21547;-60
2023/10/03 00:43:54;;;;;;;36.30;14.23;;;;;;;11.47;100.00;94281.28;5049204;28;20047;-60
2023/10/03 00:46:21;;;;;;;39.83;14.63;;;;;;;11.46;100.00;94282.47;5048677;28;21880;-60
2023/10/03 00:48:49;;;;;;;40.15;14.70;;;;;;;11.38;100.00;94281.00;5049452;28;20047;-60
2023/10/03 00:51:20;;;;;;;39.13;14.75;;;;;;;11.35;100.00;94281.84;5049060;28;20049;-59
2023/10/03 00:53:50;;;;;;;38.95;14.63;;;;;;;11.30;100.00;94280.31;5049978;28;20049;-60
2023/10/03 00:56:19;;;;;;;38.40;14.07;;;;;;;11.30;100.00;94274.03;5048189;28;20891;-60
2023/10/03 00:58:45;;;;;;;40.10;14.33;;;;;;;11.28;100.00;94276.41;5049377;28;20047;-60
2023/10/03 01:01:12;;;;;;;40.53;14.23;;;;;;;11.24;100.00;94279.19;5047900;28;20040;-60
2023/10/03 01:03:39;;;;;;;38.13;14.40;;;;;;;11.12;100.00;94274.25;5049446;28;20049;-60
2023/10/03 01:06:10;;;;;;;41.80;15.40;;;;;;;10.91;100.00;94273.31;5048912;28;20045;-60
2023/10/03 01:08:40;;;;;;;40.25;14.77;;;;;;;10.68;100.00;94271.16;5047818;28;20048;-60
2023/10/03 01:11:15;;;;;;;40.17;15.33;;;;;;;10.72;100.00;94268.41;5049317;28;20059;-60
2023/10/03 01:13:47;;;;;;;45.03;15.18;;;;;;;10.70;100.00;94262.53;5048916;28;20037;-60
2023/10/03 01:16:29;;;;;;;39.90;15.55;;;;;;;10.71;100.00;94259.38;5048692;28;20747;-60
2023/10/03 01:18:59;;;;;;;40.70;13.93;;;;;;;10.78;100.00;94253.03;5047976;28;20057;-59
2023/10/03 01:21:27;;;;;;;41.22;14.98;;;;;;;10.71;100.00;94256.66;5048842;28;20052;-60
2023/10/03 01:23:54;;;;;;;41.23;14.87;;;;;;;10.74;100.00;94255.03;5046905;28;20037;-59
2023/10/03 01:26:21;;;;;;;39.15;14.88;;;;;;;10.73;100.00;94251.53;5047805;28;20411;-60
2023/10/03 01:28:48;;;;;;;43.60;15.18;;;;;;;10.73;100.00;94251.53;5048774;28;20130;-60
2023/10/03 01:31:15;;;;;;;40.30;14.98;;;;;;;10.78;100.00;94247.53;5048608;28;20135;-60
2023/10/03 01:33:42;;;;;;;41.05;14.95;;;;;;;10.75;100.00;94245.63;5046672;28;20391;-60
2023/10/03 01:36:10;;;;;;;41.20;15.27;;;;;;;10.77;100.00;94249.53;5048401;28;20037;-60
2023/10/03 01:38:37;;;;;;;40.03;14.32;;;;;;;10.73;100.00;94248.00;5048374;28;20037;-60
2023/10/03 01:41:06;;;;;;;40.92;14.75;;;;;;;10.75;100.00;94248.38;5048322;28;20049;-60
2023/10/03 01:43:34;;;;;;;40.83;14.75;;;;;;;10.67;100.00;94238.66;5048264;28;20051;-59
2023/10/03 01:46:01;;;;;;;39.45;15.32;;;;;;;10.62;100.00;94239.88;5047662;28;20041;-60
2023/10/03 01:48:28;;;;;;;53.90;22.57;;;;;;;10.64;100.00;94234.75;5048353;28;20405;-60
2023/10/03 01:50:55;;;;;;;40.33;15.45;;;;;;;10.61;100.00;94235.56;5048118;28;20055;-59
2023/10/03 01:53:23;;;;;;;39.85;14.55;;;;;;;10.64;100.00;94234.75;5046981;28;20044;-60
2023/10/03 01:55:50;;;;;;;42.90;15.80;;;;;;;10.64;100.00;94228.47;5048480;28;20051;-60
2023/10/03 01:58:21;;;;;;;37.45;14.35;;;;;;;10.73;100.00;94234.28;5046986;28;20916;-60
2023/10/03 02:00:50;;;;;;;35.93;13.93;;;;;;;10.71;100.00;94231.94;5047766;28;20487;-60
2023/10/03 02:03:18;;;;;;;35.47;14.20;;;;;;;10.72;100.00;94229.97;5047207;28;20742;-60
2023/10/03 02:05:46;;;;;;;35.63;13.82;;;;;;;10.69;100.00;94233.53;5048413;28;20047;-60
2023/10/03 02:08:15;;;;;;;36.40;14.45;;;;;;;10.64;100.00;94226.50;5047712;28;20049;-60
2023/10/03 02:10:46;;;;;;;34.75;14.32;;;;;;;10.62;100.00;94230.84;5048326;28;20037;-60
2023/10/03 02:13:14;;;;;;;42.00;14.73;;;;;;;10.61;100.00;94232.84;5044562;28;20063;-60
2023/10/03 02:15:42;;;;;;;35.60;13.27;;;;;;;10.54;100.00;94222.72;5047747;28;20053;-60
2023/10/03 02:18:12;;;;;;;35.35;13.13;;;;;;;10.58;100.00;94228.16;5047018;28;20245;-59
2023/10/03 02:20:54;;;;;;;32.83;12.60;;;;;;;10.57;100.00;94221.88;5046061;28;20486;-60
2023/10/03 02:23:25;;;;;;;37.15;13.95;;;;;;;10.61;100.00;94223.81;5046458;28;21696;-60
2023/10/03 02:25:54;;;;;;;34.90;15.10;;;;;;;10.48;100.00;94220.81;5047412;28;20037;-60
2023/10/03 02:28:22;;;;;;;36.90;13.95;;;;;;;10.31;100.00;94220.56;5046957;28;20072;-60
2023/10/03 02:30:51;;;;;;;38.13;14.18;;;;;;;10.28;100.00;94217.81;5047751;28;20055;-59
2023/10/03 02:33:18;;;;;;;36.55;13.70;;;;;;;10.31;100.00;94222.53;5044675;28;20503;-60
2023/10/03 02:35:46;;;;;;;36.38;14.57;;;;;;;10.29;100.00;94217.44;5047831;28;20041;-60
2023/10/03 02:38:24;;;;;;;38.20;14.13;;;;;;;10.15;100.00;94209.34;5029663;28;20037;-60
2023/10/03 02:40:59;;;;;;;38.95;14.43;;;;;;;10.04;100.00;94216.88;5047092;28;20037;-58
2023/10/03 02:43:27;;;;;;;37.53;14.13;;;;;;;10.15;100.00;94212.84;5047216;28;20040;-60
2023/10/03 02:45:54;;;;;;;36.42;13.95;;;;;;;10.16;100.00;94213.63;5029598;28;20448;-59
2023/10/03 02:48:21;;;;;;;57.42;24.70;;;;;;;10.20;100.00;94208.88;5046852;28;20041;-60
2023/10/03 02:50:50;;;;;;;46.47;19.33;;;;;;;10.22;100.00;94211.22;5047809;28;20101;-60
2023/10/03 02:53:20;;;;;;;39.50;15.70;;;;;;;10.19;100.00;94207.34;5034777;28;20790;-59
2023/10/03 02:55:52;;;;;;;36.60;14.20;;;;;;;10.17;100.00;94201.47;5027601;28;20045;-60
2023/10/03 02:58:20;;;;;;;32.28;13.18;;;;;;;10.14;100.00;94205.03;5026447;28;20740;-60
2023/10/03 03:00:49;;;;;;;36.30;13.18;;;;;;;10.14;100.00;94210.50;5027620;28;20403;-60
2023/10/03 03:03:16;;;;;;;34.37;13.17;;;;;;;10.13;100.00;94206.22;5027446;28;20041;-60
2023/10/03 03:05:43;;;;;;;37.85;13.07;;;;;;;10.04;100.00;94214.13;5027534;28;20041;-60
2023/10/03 03:08:32;;;;;;;33.58;13.15;;;;;;;10.02;100.00;94211.00;5026985;28;20041;-59
2023/10/03 03:11:00;;;;;;;32.10;12.68;;;;;;;10.07;100.00;94216.84;5025960;28;20056;-60
2023/10/03 03:13:33;;;;;;;33.95;13.35;;;;;;;10.11;100.00;94214.06;5031872;28;20502;-60
2023/10/03 03:16:00;;;;;;;38.10;13.93;;;;;;;10.12;100.00;94210.13;5033790;28;20059;-60
2023/10/03 03:18:31;;;;;;;32.88;13.25;;;;;;;10.10;100.00;94217.97;5033611;28;20080;-60
2023/10/03 03:21:01;;;;;;;34.10;12.95;;;;;;;10.08;100.00;94212.94;5030987;28;20487;-60
2023/10/03 03:23:36;;;;;;;35.60;13.70;;;;;;;10.00;100.00;94211.44;5034415;28;20424;-59
2023/10/03 03:26:20;;;;;;;43.50;17.25;;;;;;;9.93;100.00;94206.75;5033301;28;20043;-60
2023/10/03 03:28:49;;;;;;;40.60;15.47;;;;;;;9.94;100.00;94208.34;5033964;28;20053;-60
2023/10/03 03:31:32;;;;;;;37.28;14.05;;;;;;;9.94;100.00;94204.78;5031573;28;21613;-60
2023/10/03 03:34:00;;;;;;;33.83;12.57;;;;;;;9.94;100.00;94207.53;5032565;28;20120;-59
2023/10/03 03:36:35;;;;;;;28.85;12.30;;;;;;;9.94;100.00;94208.34;5033736;28;20045;-60
2023/10/03 03:39:12;;;;;;;31.25;12.13;;;;;;;9.92;100.00;94202.47;5032039;28;20518;-60
2023/10/03 03:41:39;;;;;;;31.40;11.90;;;;;;;9.78;100.00;94202.59;5033834;28;20048;-60
2023/10/03 03:44:12;;;;;;;29.75;12.63;;;;;;;9.63;100.00;94199.16;5048653;28;20049;-60
2023/10/03 03:46:40;;;;;;;29.45;12.30;;;;;;;9.56;100.00;94196.50;5033844;28;20053;-60
2023/10/03 03:49:08;;;;;;;31.65;12.93;;;;;;;9.58;100.00;94197.63;5034638;28;20042;-60
2023/10/03 03:51:36;;;;;;;29.50;11.82;;;;;;;9.68;100.00;94206.16;5039965;28;20049;-60
2023/10/03 03:54:05;;;;;;;28.70;12.20;;;;;;;9.76;100.00;94200.25;5032775;28;20058;-60
2023/10/03 03:56:33;;;;;;;28.05;11.00;;;;;;;9.84;100.00;94195.50;5033646;28;20099;-60
2023/10/03 03:59:00;;;;;;;27.20;12.15;;;;;;;9.83;100.00;94204.13;5032561;28;20057;-60
2023/10/03 04:01:27;;;;;;;29.52;12.75;;;;;;;9.64;100.00;94199.94;5033557;28;20038;-60
2023/10/03 04:03:57;;;;;;;25.92;11.25;;;;;;;9.68;100.00;94209.72;5033327;28;20068;-59
2023/10/03 04:06:25;;;;;;;27.57;11.50;;;;;;;9.77;100.00;94201.03;5033789;28;20049;-59
2023/10/03 04:08:52;;;;;;;26.83;11.77;;;;;;;9.84;100.00;94202.94;5033257;28;20034;-59
2023/10/03 04:11:38;;;;;;;27.48;11.80;;;;;;;9.72;100.00;94187.78;5033729;28;20407;-60
2023/10/03 04:14:05;;;;;;;27.65;11.27;;;;;;;9.78;100.00;94191.63;5033236;28;20067;-59
2023/10/03 04:16:39;;;;;;;26.98;11.35;;;;;;;9.82;100.00;94189.66;5030044;28;20051;-60
2023/10/03 04:19:07;;;;;;;26.20;10.83;;;;;;;9.78;100.00;94194.38;5032820;28;20051;-59
2023/10/03 04:21:35;;;;;;;26.67;11.10;;;;;;;9.70;100.00;94192.84;5033673;28;20049;-60
2023/10/03 04:24:04;;;;;;;24.50;11.50;;;;;;;9.72;100.00;94191.28;5031035;28;20050;-60
2023/10/03 04:26:32;;;;;;;27.27;11.55;;;;;;;9.78;100.00;94194.38;5030274;28;20053;-59
2023/10/03 04:28:59;;;;;;;25.85;11.68;;;;;;;9.63;100.00;94193.69;5029796;28;20041;-60
2023/10/03 04:31:26;;;;;;;27.73;11.77;;;;;;;9.59;100.00;94192.94;5030378;28;20049;-60
2023/10/03 04:33:54;;;;;;;24.88;11.32;;;;;;;9.34;100.00;94184.91;5029282;28;20456;-60
2023/10/03 04:36:24;;;;;;;25.77;11.20;;;;;;;9.35;100.00;94189.19;5030322;28;20045;-59
2023/10/03 04:38:51;;;;;;;27.38;11.10;;;;;;;9.30;100.00;94187.66;5030001;28;20110;-60
2023/10/03 04:41:18;;;;;;;23.55;11.02;;;;;;;9.23;100.00;94182.19;5049125;28;21721;-59
2023/10/03 04:43:45;;;;;;;25.33;10.87;;;;;;;9.30;100.00;94181.41;5049954;28;20040;-60
2023/10/03 04:46:11;;;;;;;24.90;11.07;;;;;;;9.29;100.00;94180.59;5049128;28;20065;-60
2023/10/03 04:48:38;;;;;;;23.75;10.93;;;;;;;9.43;100.00;94190.69;5049594;28;20052;-59
2023/10/03 04:51:05;;;;;;;27.83;11.27;;;;;;;9.49;100.00;94185.56;5049019;28;20914;-60
2023/10/03 04:53:32;;;;;;;26.80;11.82;;;;;;;9.50;100.00;94184.41;5050229;28;20052;-60
2023/10/03 04:55:59;;;;;;;25.70;11.47;;;;;;;9.31;100.00;94188.41;5048907;28;20047;-59
2023/10/03 04:58:26;;;;;;;24.65;11.00;;;;;;;9.44;100.00;94196.94;5049532;28;20504;-60
2023/10/03 05:00:53;;;;;;;25.15;11.10;;;;;;;9.50;100.00;94190.66;5049019;28;20041;-60
2023/10/03 05:03:21;;;;;;;25.35;10.98;;;;;;;9.52;100.00;94188.28;5049859;28;20041;-59
2023/10/03 05:05:48;;;;;;;22.60;10.23;;;;;;;9.54;100.00;94193.38;5049281;28;20049;-60
2023/10/03 05:08:18;;;;;;;23.90;11.40;;;;;;;9.53;100.00;94189.84;5048743;28;20059;-59
2023/10/03 05:10:46;;;;;;;23.77;11.07;;;;;;;9.49;100.00;94185.56;5048989;28;20041;-59
2023/10/03 05:13:13;;;;;;;22.88;10.43;;;;;;;9.53;100.00;94186.31;5048770;28;20037;-59
2023/10/03 05:15:40;;;;;;;22.30;10.27;;;;;;;9.53;100.00;94192.56;5049457;28;20051;-60
2023/10/03 05:18:08;;;;;;;26.67;11.18;;;;;;;9.37;100.00;94187.59;5048247;28;20383;-59
2023/10/03 05:20:37;;;;;;;23.23;10.70;;;;;;;9.34;100.00;94201.31;5049411;28;20041;-60
2023/10/03 05:23:06;;;;;;;23.58;10.88;;;;;;;9.36;100.00;94199.75;5048557;28;20045;-59
2023/10/03 05:25:42;;;;;;;25.80;11.77;;;;;;;9.36;100.00;94199.75;5049060;28;20060;-59
2023/10/03 05:28:12;;;;;;;26.20;11.50;;;;;;;9.46;100.00;94203.59;5047434;28;20134;-59
2023/10/03 05:30:40;;;;;;;23.85;10.85;;;;;;;9.49;100.00;94199.28;5048930;28;20043;-59
2023/10/03 05:33:07;;;;;;;27.37;11.13;;;;;;;9.56;100.00;94208.22;5046907;28;20052;-59
2023/10/03 05:35:35;;;;;;;25.67;11.50;;;;;;;9.58;100.00;94199.59;5048771;28;20080;-60
2023/10/03 05:38:08;;;;;;;23.48;11.40;;;;;;;9.64;100.00;94208.16;5048059;28;20044;-59
2023/10/03 05:40:36;;;;;;;24.95;11.13;;;;;;;9.60;100.00;94208.97;5048816;28;20067;-59
2023/10/03 05:43:03;;;;;;;23.48;10.52;;;;;;;9.69;100.00;94211.25;5047251;28;20033;-59
2023/10/03 05:45:34;;;;;;;23.23;10.80;;;;;;;9.71;100.00;94213.59;5047833;28;20045;-59
2023/10/03 05:48:04;;;;;;;23.60;10.23;;;;;;;9.77;100.00;94207.28;5045347;28;20049;-59
2023/10/03 05:50:34;;;;;;;23.98;10.20;;;;;;;9.88;100.00;94209.97;5046858;28;20060;-59
2023/10/03 05:53:02;;;;;;;22.50;10.18;;;;;;;9.88;100.00;94212.69;5048213;28;20041;-60
2023/10/03 05:55:28;;;;;;;21.70;10.55;;;;;;;9.87;100.00;94213.09;5031153;28;20057;-60
2023/10/03 05:57:55;;;;;;;24.17;10.73;;;;;;;9.88;100.00;94207.22;5047406;28;20033;-60
2023/10/03 06:00:23;;;;;;;25.02;11.27;;;;;;;10.02;100.00;94208.25;5046458;28;20731;-60
2023/10/03 06:02:50;;;;;;;28.60;14.32;;;;;;;10.12;100.00;94219.16;5047640;28;20067;-60
2023/10/03 06:05:18;;;;;;;22.33;10.50;;;;;;;10.08;100.00;94218.41;5044105;28;20894;-60
2023/10/03 06:07:45;;;;;;;22.55;10.43;;;;;;;10.02;100.00;94216.50;5048217;28;20478;-60
2023/10/03 06:10:15;;;;;;;22.43;10.40;;;;;;;10.17;100.00;94226.94;5027802;28;20041;-60
2023/10/03 06:12:43;;;;;;;26.13;10.85;;;;;;;10.15;100.00;94223.81;5048476;28;20056;-60
2023/10/03 06:15:12;;;;;;;22.40;10.57;;;;;;;10.28;100.00;94224.13;5047610;28;20090;-60
2023/10/03 06:17:40;;;;;;;21.92;10.27;;;;;;;10.35;100.00;94221.31;5048085;28;20049;-60
2023/10/03 06:20:10;;;;;;;23.15;11.00;;;;;;;10.47;100.00;94228.25;5047482;28;20048;-60
2023/10/03 06:22:39;;;;;;;26.40;11.20;;;;;;;10.52;100.00;94232.53;5048206;28;20041;-60
2023/10/03 06:25:07;;;;;;;22.38;11.15;;;;;;;10.46;100.00;94232.19;5047667;28;20045;-60
2023/10/03 06:27:34;;;;;;;24.42;11.57;;;;;;;10.76;100.00;94236.97;5047437;28;20041;-60
2023/10/03 06:30:01;;;;;;;23.70;10.52;;;;;;;10.93;100.00;94235.22;5046426;28;20486;-60
2023/10/03 06:32:28;;;;;;;20.92;10.70;;;;;;;11.07;100.00;94236.25;5047633;28;20445;-60
2023/10/03 06:34:55;;;;;;;24.00;11.70;;;;;;;11.21;100.00;94236.09;5047439;28;20410;-60
2023/10/03 06:37:23;;;;;;;26.90;14.13;;;;;;;11.24;100.00;94238.00;5047891;28;20049;-60
2023/10/03 06:39:50;;;;;;;24.30;13.35;;;;;;;11.45;100.00;94236.94;5046336;28;20037;-61
2023/10/03 06:42:18;;;;;;;25.95;13.20;;;;;;;11.59;100.00;94234.00;5046893;28;20045;-61
2023/10/03 06:44:45;;;;;;;22.65;10.77;;;;;;;11.60;100.00;94234.78;5047825;28;20048;-60
2023/10/03 06:47:12;;;;;;;22.10;12.00;;;;;;;11.64;100.00;94238.25;5028708;28;20135;-60
2023/10/03 06:49:39;;;;;;;26.30;12.25;;;;;;;11.53;100.00;94243.09;5047805;28;20116;-60
2023/10/03 06:52:07;;;;;;;22.60;11.38;;;;;;;11.80;100.00;94234.88;5045899;28;20501;-60
2023/10/03 06:54:35;;;;;;;23.52;11.35;;;;;;;12.01;100.00;94238.53;5041864;28;20044;-60
2023/10/03 06:57:03;;;;;;;21.90;11.50;;;;;;;12.23;100.00;94234.22;5041231;28;20443;-60
2023/10/03 06:59:33;;;;;;;21.13;10.80;;;;;;;12.31;100.00;94235.66;5045482;28;20071;-60
2023/10/03 07:02:00;;;;;;;20.30;10.30;;;;;;;12.41;100.00;94236.69;5042511;28;20037;-59
2023/10/03 07:04:26;;;;;;;20.77;10.25;;;;;;;12.46;100.00;94238.97;5046981;28;20614;-60
2023/10/03 07:06:53;;;;;;;22.77;10.85;;;;;;;12.36;100.00;94237.19;5044989;28;20052;-59
2023/10/03 07:09:20;;;;;;;18.38;9.93;;;;;;;12.72;100.00;94236.56;5046796;28;20037;-59
2023/10/03 07:11:50;;;;;;;20.70;10.13;;;;;;;12.95;100.00;94238.47;5047470;28;20053;-59
2023/10/03 07:14:17;;;;;;;20.83;10.90;;;;;;;13.82;100.00;94234.72;5023902;28;22242;-59
2023/10/03 07:16:48;;;;;;;18.05;10.00;;;;;;;17.92;100.00;94223.94;5046552;28;20048;-60
2023/10/03 07:19:15;;;;;;;20.77;10.27;;;;;;;19.84;100.00;94216.28;5046827;28;20037;-60
2023/10/03 07:21:42;;;;;;;18.63;10.20;;;;;;;20.40;100.00;94227.22;5047262;28;20045;-60
2023/10/03 07:24:09;;;;;;;16.40;9.53;;;;;;;22.79;92.48;94221.44;5046561;28;20037;-61
2023/10/03 07:26:36;;;;;;;16.77;9.43;;;;;;;24.10;80.30;94219.59;5046620;28;20094;-61
2023/10/03 07:29:04;;;;;;;17.48;9.70;;;;;;;25.16;74.28;94215.19;5046434;28;20389;-59
2023/10/03 07:31:32;;;;;;;15.95;9.65;;;;;;;26.84;65.86;94215.91;5046077;28;20049;-59
2023/10/03 07:34:00;;;;;;;15.18;9.75;;;;;;;26.89;60.04;94220.78;5046250;28;20068;-59
2023/10/03 07:36:27;;;;;;;17.67;9.37;;;;;;;27.17;60.98;94208.66;5046643;28;20387;-59
2023/10/03 07:38:54;;;;;;;16.70;9.63;;;;;;;27.53;58.69;94212.38;5046169;28;20059;-59
2023/10/03 07:41:21;;;;;;;15.32;9.18;;;;;;;28.01;54.57;94196.19;5046806;28;20045;-59
2023/10/03 07:43:49;;;;;;;14.98;9.57;;;;;;;26.92;55.83;94204.88;5047384;28;20067;-59
2023/10/03 07:46:20;;;;;;;15.75;9.60;;;;;;;27.18;57.69;94204.53;5046212;28;20057;-59
2023/10/03 07:48:52;;;;;;;15.23;9.50;;;;;;;28.57;55.41;94201.38;5043847;28;20037;-59
2023/10/03 07:51:31;;;;;;;16.27;9.48;;;;;;;29.79;49.75;94202.59;5046079;28;21525;-59
2023/10/03 07:53:58;;;;;;;16.08;9.90;;;;;;;30.74;46.91;94195.97;5045814;28;20041;-59
2023/10/03 07:56:33;;;;;;;14.60;9.75;;;;;;;30.01;47.94;94207.16;5046355;28;20045;-59
2023/10/03 07:59:04;;;;;;;15.75;9.63;;;;;;;29.38;48.22;94203.63;5045108;28;20033;-59
2023/10/03 08:01:32;;;;;;;15.30;9.67;;;;;;;29.89;47.80;94202.22;5050995;28;20040;-59
2023/10/03 08:04:20;;;;;;;15.65;9.93;;;;;;;29.08;49.14;94198.81;5034017;28;21726;-59
2023/10/03 08:06:47;;;;;;;15.90;9.50;;;;;;;30.66;47.39;94190.94;5030338;28;20051;-59
2023/10/03 08:09:15;;;;;;;14.88;9.43;;;;;;;31.70;43.98;94199.81;5029191;28;20091;-60
2023/10/03 08:11:46;;;;;;;15.13;9.43;;;;;;;32.35;42.23;94189.53;5028726;28;20046;-59
2023/10/03 08:14:15;;;;;;;14.90;9.73;;;;;;;31.85;43.28;94191.44;5030321;28;20508;-60
2023/10/03 08:16:43;;;;;;;15.32;9.70;;;;;;;32.98;41.26;94189.50;5030671;28;20053;-60
2023/10/03 08:19:21;;;;;;;14.75;8.98;;;;;;;34.53;38.42;94200.22;5029808;28;20033;-60
2023/10/03 08:21:48;;;;;;;14.13;9.48;;;;;;;34.60;37.27;94198.72;5028370;28;20049;-60
2023/10/03 08:24:19;;;;;;;13.65;8.75;;;;;;;33.47;39.44;94204.97;5030363;28;20383;-59
2023/10/03 08:26:46;;;;;;;14.03;8.90;;;;;;;32.72;40.96;94198.97;5030310;28;20041;-60
2023/10/03 08:29:23;;;;;;;13.77;8.60;;;;;;;33.82;39.11;94200.59;5029014;28;20044;-60
2023/10/03 08:31:57;;;;;;;13.73;8.80;;;;;;;33.10;40.65;94198.53;5030705;28;20049;-60
2023/10/03 08:34:27;;;;;;;14.88;8.77;;;;;;;34.16;38.86;94204.53;5029662;28;22181;-60
2023/10/03 08:36:54;;;;;;;13.15;8.15;;;;;;;35.00;36.43;94201.00;5030129;28;20037;-60
2023/10/03 08:40:19;;;;;;;12.32;7.60;;;;;;;34.42;36.48;94197.75;5078984;27;20375;-59
2023/10/03 08:42:55;;;;;;;12.17;6.80;;;;;;;34.01;35.40;94200.28;5071176;28;20401;-59
2023/10/03 08:45:25;;;;;;;13.55;7.30;;;;;;;33.75;36.35;94201.34;5081765;28;21677;-57
2023/10/03 08:47:53;;;;;;;12.27;7.38;;;;;;;34.31;36.03;94210.28;5065126;28;20036;-56
2023/10/03 08:50:34;;;;;;;10.90;6.72;;;;;;;33.52;36.13;94204.03;5072726;28;20070;-57
2023/10/03 08:53:26;;;;;;;11.45;6.78;;;;;;;35.04;34.82;94206.34;5074089;28;20055;-57
2023/10/03 08:55:58;;;;;;;11.10;6.40;;;;;;;35.04;33.44;94200.63;5073766;28;20559;-57
2023/10/03 08:58:26;;;;;;;10.68;6.35;;;;;;;34.35;35.03;94198.47;5074740;28;20045;-57
2023/10/03 09:01:02;;;;;;;11.25;6.78;;;;;;;33.22;36.61;94193.25;5074214;28;20040;-57
2023/10/03 09:03:46;;;;;;;11.77;6.63;;;;;;;33.15;37.07;94200.44;5073834;28;20049;-57
2023/10/03 09:06:20;;;;;;;12.35;6.63;;;;;;;31.37;39.16;94197.09;5067256;28;20675;-57
2023/10/03 09:09:09;;;;;;;12.03;6.50;;;;;;;30.99;39.52;94197.31;5071115;28;20048;-57
2023/10/03 09:11:37;;;;;;;11.07;6.60;;;;;;;31.39;40.16;94191.66;5075827;28;20801;-57
2023/10/03 09:14:08;;;;;;;12.02;6.88;;;;;;;32.48;38.14;94190.75;5071611;28;20064;-57
2023/10/03 09:16:39;;;;;;;11.05;6.63;;;;;;;32.18;38.10;94187.09;5074314;28;20053;-57
2023/10/03 09:19:09;;;;;;;10.50;6.90;;;;;;;32.38;38.08;94190.50;5070773;28;20064;-57
2023/10/03 09:21:36;;;;;;;12.23;6.40;;;;;;;30.59;40.55;94193.66;5068655;28;20048;-58
2023/10/03 09:24:17;;;;;;;10.43;6.55;;;;;;;31.00;40.55;94196.00;5072434;28;20047;-58
2023/10/03 09:26:51;;;;;;;11.55;6.60;;;;;;;29.72;42.25;94189.06;5066993;28;20097;-58
2023/10/03 09:29:29;;;;;;;10.75;6.82;;;;;;;29.87;42.36;94195.00;5068328;28;20784;-57
2023/10/03 09:32:16;;;;;;;10.80;6.38;;;;;;;29.83;42.43;94188.13;5066474;28;20045;-57
2023/10/03 09:34:44;;;;;;;11.73;6.63;;;;;;;29.35;44.59;94187.72;5073475;28;20651;-58
2023/10/03 09:37:11;;;;;;;12.32;6.60;;;;;;;28.21;45.68;94183.72;5071053;28;20039;-57
2023/10/03 09:39:39;;;;;;;12.15;6.60;;;;;;;29.06;46.17;94195.00;5070377;28;20036;-58
2023/10/03 09:42:15;;;;;;;10.80;6.57;;;;;;;30.09;43.28;94179.00;5070871;28;20040;-57
2023/10/03 09:44:48;;;;;;;11.13;6.95;;;;;;;29.59;45.22;94181.25;5073498;28;20044;-58
2023/10/03 09:47:19;;;;;;;9.97;6.30;;;;;;;32.41;40.68;94178.78;5064791;28;20048;-59
2023/10/03 09:49:47;;;;;;;13.90;6.90;;;;;;;29.91;43.64;94177.72;5066048;28;20082;-58
2023/10/03 09:52:22;;;;;;;10.95;6.50;;;;;;;29.80;44.07;94175.06;5055492;28;20122;-58
2023/10/03 09:54:54;;;;;;;12.30;6.22;;;;;;;30.35;43.60;94175.50;5061610;28;20125;-58
2023/10/03 09:57:21;;;;;;;10.27;6.43;;;;;;;28.87;46.07;94173.09;5064461;28;20818;-58
2023/10/03 09:59:49;;;;;;;11.20;6.77;;;;;;;29.65;45.47;94170.59;5058026;28;20037;-58
2023/10/03 10:02:30;;;;;;;10.98;6.18;;;;;;;29.74;44.42;94180.03;5055277;28;20045;-58
2023/10/03 10:05:03;;;;;;;10.95;6.82;;;;;;;29.67;44.31;94168.00;5056546;28;20048;-58
2023/10/03 10:08:11;;;;;;;9.60;6.43;;;;;;;30.36;42.79;94167.78;5058978;28;20044;-58
2023/10/03 10:10:37;;;;;;;11.20;5.72;;;;;;;30.45;41.88;94170.97;5046175;28;20761;-59
2023/10/03 10:13:12;;;;;;;11.37;6.00;;;;;;;29.73;43.29;94167.97;5056711;28;20045;-58
2023/10/03 10:16:00;;;;;;;9.40;6.03;;;;;;;31.14;40.37;94159.16;5055879;28;20098;-58
2023/10/03 10:18:51;;;;;;;9.55;6.10;;;;;;;31.44;40.46;94155.97;5062484;28;20622;-58
2023/10/03 10:21:25;;;;;;;9.65;6.10;;;;;;;32.07;38.73;94153.28;5041224;28;20661;-59
2023/10/03 10:26:40;;;;;;;9.17;5.50;;;;;;;30.44;40.83;94146.00;5051619;28;20051;-59
2023/10/03 10:29:09;;;;;;;9.30;5.20;;;;;;;32.79;37.04;94152.78;5063177;28;20059;-58
2023/10/03 10:31:44;;;;;;;9.82;5.50;;;;;;;32.25;35.61;94140.97;5055254;28;20041;-58
2023/10/03 10:34:23;;;;;;;9.45;5.03;;;;;;;32.93;35.08;94149.84;5051410;28;20113;-58
2023/10/03 10:37:03;;;;;;;7.00;4.68;;;;;;;34.30;33.23;94148.16;5053783;28;20044;-58
2023/10/03 10:40:09;;;;;;;9.43;4.87;;;;;;;32.61;34.91;94146.03;5060082;28;21579;-58
2023/10/03 10:42:59;;;;;;;7.28;4.88;;;;;;;31.08;38.17;94141.50;5060169;28;20188;-58
2023/10/03 10:45:28;;;;;;;9.65;5.00;;;;;;;31.84;36.56;94142.44;5057030;28;20036;-60
2023/10/03 10:47:55;;;;;;;9.63;5.50;;;;;;;33.20;36.02;94139.03;5053356;28;20049;-60
2023/10/03 10:50:25;;;;;;;8.05;4.90;;;;;;;33.04;33.96;94141.78;5051686;28;20363;-59
2023/10/03 10:52:56;;;;;;;8.30;4.90;;;;;;;30.93;37.47;94134.31;5055361;28;20033;-57
2023/10/03 10:55:25;;;;;;;9.73;5.18;;;;;;;31.50;37.61;94136.78;5051407;28;20044;-58
2023/10/03 10:58:09;;;;;;;8.07;5.10;;;;;;;32.23;35.92;94129.41;5062490;28;20543;-58
2023/10/03 11:00:36;;;;;;;7.72;4.68;;;;;;;34.11;33.50;94132.16;5053820;28;21612;-58
2023/10/03 11:03:05;;;;;;;7.50;4.32;;;;;;;32.89;33.97;94118.94;5055338;28;20067;-58
2023/10/03 11:05:48;;;;;;;8.10;4.50;;;;;;;30.40;37.67;94137.84;5058885;28;20049;-58
2023/10/03 11:08:17;;;;;;;12.02;4.57;;;;;;;29.79;39.10;94131.88;5056585;28;20040;-58
2023/10/03 11:10:54;;;;;;;6.38;4.43;;;;;;;28.72;40.65;94135.28;5059766;28;20524;-58
2023/10/03 11:13:22;;;;;;;6.80;4.43;;;;;;;29.79;40.14;94131.09;5076643;28;20052;-58
2023/10/03 11:15:52;;;;;;;9.15;4.20;;;;;;;29.35;40.71;94130.44;5074511;28;20041;-58
2023/10/03 11:18:30;;;;;;;9.10;4.37;;;;;;;29.18;40.45;94139.91;5075238;28;20795;-58
2023/10/03 11:20:58;;;;;;;6.93;4.50;;;;;;;28.74;41.97;94138.34;5074912;28;20046;-57
2023/10/03 11:23:25;;;;;;;7.07;4.30;;;;;;;28.19;42.64;94144.75;5077661;28;20430;-57
2023/10/03 11:25:56;;;;;;;6.95;4.20;;;;;;;28.09;43.46;94138.69;5074734;28;20054;-58
2023/10/03 11:28:28;;;;;;;9.80;4.65;;;;;;;26.81;46.63;94136.06;5053366;28;20288;-57
2023/10/03 11:31:03;;;;;;;8.97;4.63;;;;;;;28.05;44.99;94143.06;5056934;28;20067;-57
2023/10/03 11:33:46;;;;;;;6.88;4.60;;;;;;;27.43;46.83;94149.13;5055772;28;20047;-58
2023/10/03 11:36:14;;;;;;;7.75;4.50;;;;;;;27.75;46.73;94143.00;5052103;28;20044;-57